sensor_id;sensor_type;location;lat;lon;timestamp;pressure;altitude;pressure_sealevel;temperature;humidity
56006;BME280;41888;44.696;10.522;2022-11-14T00:00:10;101291.72;;;9.59;100.00
56006;BME280;41888;44.696;10.522;2022-11-14T00:02:38;101293.38;;;9.60;100.00
56006;BME280;41888;44.696;10.522;2022-11-14T00:05:05;101285.75;;;9.57;100.00
56006;BME280;41888;44.696;10.522;2022-11-14T00:07:33;101284.63;;;9.52;100.00
56006;BME280;41888;44.696;10.522;2022-11-14T00:09:59;101288.09;;;9.52;100.00
56006;BME280;41888;44.696;10.522;2022-11-14T00:12:26;101291.47;;;9.69;100.00
56006;BME280;41888;44.696;10.522;2022-11-14T00:14:52;101292.09;;;9.56;100.00
56006;BME280;41888;44.696;10.522;2022-11-14T00:17:20;101276.66;;;9.52;100.00
56006;BME280;41888;44.696;10.522;2022-11-14T00:19:47;101273.66;;;9.55;100.00
56006;BME280;41888;44.696;10.522;2022-11-14T00:22:13;101276.31;;;9.55;100.00
56006;BME280;41888;44.696;10.522;2022-11-14T00:24:39;101276.16;;;9.56;100.00
56006;BME280;41888;44.696;10.522;2022-11-14T00:27:05;101283.75;;;9.59;100.00
56006;BME280;41888;44.696;10.522;2022-11-14T00:29:31;101278.16;;;9.54;100.00
56006;BME280;41888;44.696;10.522;2022-11-14T00:31:57;101272.00;;;9.54;100.00
56006;BME280;41888;44.696;10.522;2022-11-14T00:34:23;101271.84;;;9.55;100.00
56006;BME280;41888;44.696;10.522;2022-11-14T00:36:50;101275.31;;;9.56;100.00
56006;BME280;41888;44.696;10.522;2022-11-14T00:39:16;101273.50;;;9.56;100.00
56006;BME280;41888;44.696;10.522;2022-11-14T00:41:42;101270.00;;;9.56;100.00
56006;BME280;41888;44.696;10.522;2022-11-14T00:44:08;101281.09;;;9.59;100.00
56006;BME280;41888;44.696;10.522;2022-11-14T00:46:36;101274.78;;;9.60;100.00
56006;BME280;41888;44.696;10.522;2022-11-14T00:49:03;101272.75;;;9.62;100.00
56006;BME280;41888;44.696;10.522;2022-11-14T00:51:30;101273.09;;;9.67;100.00
56006;BME280;41888;44.696;10.522;2022-11-14T00:53:56;101280.22;;;9.67;100.00
56006;BME280;41888;44.696;10.522;2022-11-14T00:56:22;101284.03;;;9.64;100.00
56006;BME280;41888;44.696;10.522;2022-11-14T00:58:48;101278.59;;;9.58;100.00
56006;BME280;41888;44.696;10.522;2022-11-14T01:01:14;101280.72;;;9.62;100.00
56006;BME280;41888;44.696;10.522;2022-11-14T01:03:40;101275.06;;;9.65;100.00
56006;BME280;41888;44.696;10.522;2022-11-14T01:06:09;101284.03;;;9.64;100.00
56006;BME280;41888;44.696;10.522;2022-11-14T01:08:36;101274.91;;;9.67;100.00
56006;BME280;41888;44.696;10.522;2022-11-14T01:11:09;101283.16;;;9.72;100.00
56006;BME280;41888;44.696;10.522;2022-11-14T01:13:37;101279.84;;;9.70;100.00
56006;BME280;41888;44.696;10.522;2022-11-14T01:16:03;101283.72;;;9.67;100.00
56006;BME280;41888;44.696;10.522;2022-11-14T01:18:29;101277.72;;;9.65;100.00
56006;BME280;41888;44.696;10.522;2022-11-14T01:20:56;101278.72;;;9.64;100.00
56006;BME280;41888;44.696;10.522;2022-11-14T01:23:22;101273.41;;;9.64;100.00
56006;BME280;41888;44.696;10.522;2022-11-14T01:25:48;101279.94;;;9.62;100.00
56006;BME280;41888;44.696;10.522;2022-11-14T01:28:16;101267.66;;;9.61;100.00
56006;BME280;41888;44.696;10.522;2022-11-14T01:30:43;101262.66;;;9.58;100.00
56006;BME280;41888;44.696;10.522;2022-11-14T01:33:10;101269.19;;;9.55;100.00
56006;BME280;41888;44.696;10.522;2022-11-14T01:35:37;101262.88;;;9.56;100.00
56006;BME280;41888;44.696;10.522;2022-11-14T01:38:05;101263.88;;;9.55;100.00
56006;BME280;41888;44.696;10.522;2022-11-14T01:40:31;101262.22;;;9.54;100.00
56006;BME280;41888;44.696;10.522;2022-11-14T01:45:54;101258.25;;;9.50;100.00
56006;BME280;41888;44.696;10.522;2022-11-14T01:48:25;101258.78;;;9.46;100.00
56006;BME280;41888;44.696;10.522;2022-11-14T01:51:29;101255.47;;;9.44;100.00
56006;BME280;41888;44.696;10.522;2022-11-14T01:53:50;101255.19;;;9.39;100.00
56006;BME280;41888;44.696;10.522;2022-11-14T01:56:21;101253.34;;;9.39;100.00
56006;BME280;41888;44.696;10.522;2022-11-14T01:58:53;101243.91;;;9.37;100.00
56006;BME280;41888;44.696;10.522;2022-11-14T02:01:21;101241.06;;;9.38;100.00
56006;BME280;41888;44.696;10.522;2022-11-14T02:03:49;101243.91;;;9.37;100.00
56006;BME280;41888;44.696;10.522;2022-11-14T02:06:19;101253.69;;;9.36;100.00
56006;BME280;41888;44.696;10.522;2022-11-14T02:08:46;101246.75;;;9.35;100.00
56006;BME280;41888;44.696;10.522;2022-11-14T02:11:13;101252.06;;;9.35;100.00
56006;BME280;41888;44.696;10.522;2022-11-14T02:13:39;101257.00;;;9.38;100.00
56006;BME280;41888;44.696;10.522;2022-11-14T02:16:06;101255.72;;;9.34;100.00
56006;BME280;41888;44.696;10.522;2022-11-14T02:18:32;101247.09;;;9.32;100.00
56006;BME280;41888;44.696;10.522;2022-11-14T02:20:58;101256.53;;;9.35;100.00
56006;BME280;41888;44.696;10.522;2022-11-14T02:23:27;101244.97;;;9.27;100.00
56006;BME280;41888;44.696;10.522;2022-11-14T02:25:53;101237.16;;;9.26;100.00
56006;BME280;41888;44.696;10.522;2022-11-14T02:28:20;101236.25;;;9.19;100.00
56006;BME280;41888;44.696;10.522;2022-11-14T02:30:47;101234.28;;;9.13;100.00
56006;BME280;41888;44.696;10.522;2022-11-14T02:33:14;101237.91;;;9.20;100.00
56006;BME280;41888;44.696;10.522;2022-11-14T02:35:41;101228.91;;;9.21;100.00
56006;BME280;41888;44.696;10.522;2022-11-14T02:38:07;101224.78;;;9.18;100.00
56006;BME280;41888;44.696;10.522;2022-11-14T02:40:33;101225.31;;;9.14;100.00
56006;BME280;41888;44.696;10.522;2022-11-14T02:43:00;101223.97;;;9.18;100.00
56006;BME280;41888;44.696;10.522;2022-11-14T02:45:26;101219.81;;;9.15;100.00
56006;BME280;41888;44.696;10.522;2022-11-14T02:47:52;101215.16;;;9.17;100.00
56006;BME280;41888;44.696;10.522;2022-11-14T02:50:18;101218.97;;;9.15;100.00
56006;BME280;41888;44.696;10.522;2022-11-14T02:52:44;101209.19;;;9.15;100.00
56006;BME280;41888;44.696;10.522;2022-11-14T02:55:11;101212.69;;;9.16;100.00
56006;BME280;41888;44.696;10.522;2022-11-14T02:57:37;101205.09;;;9.13;100.00
56006;BME280;41888;44.696;10.522;2022-11-14T03:00:04;101210.72;;;9.10;100.00
56006;BME280;41888;44.696;10.522;2022-11-14T03:02:31;101215.25;;;9.09;100.00
56006;BME280;41888;44.696;10.522;2022-11-14T03:04:57;101225.03;;;9.09;100.00
56006;BME280;41888;44.696;10.522;2022-11-14T03:07:23;101229.31;;;9.10;100.00
56006;BME280;41888;44.696;10.522;2022-11-14T03:09:49;101224.00;;;9.10;100.00
56006;BME280;41888;44.696;10.522;2022-11-14T03:12:18;101229.97;;;9.12;100.00
56006;BME280;41888;44.696;10.522;2022-11-14T03:14:45;101226.78;;;9.16;100.00
56006;BME280;41888;44.696;10.522;2022-11-14T03:17:11;101236.78;;;9.14;100.00
56006;BME280;41888;44.696;10.522;2022-11-14T03:19:37;101236.94;;;9.13;100.00
56006;BME280;41888;44.696;10.522;2022-11-14T03:22:04;101239.75;;;9.11;100.00
56006;BME280;41888;44.696;10.522;2022-11-14T03:24:30;101239.44;;;9.14;100.00
56006;BME280;41888;44.696;10.522;2022-11-14T03:26:57;101241.06;;;9.15;100.00
56006;BME280;41888;44.696;10.522;2022-11-14T03:29:23;101239.22;;;9.16;100.00
56006;BME280;41888;44.696;10.522;2022-11-14T03:31:49;101239.06;;;9.17;100.00
56006;BME280;41888;44.696;10.522;2022-11-14T03:34:15;101242.00;;;9.22;100.00
56006;BME280;41888;44.696;10.522;2022-11-14T03:36:41;101237.91;;;9.20;100.00
56006;BME280;41888;44.696;10.522;2022-11-14T03:39:07;101239.34;;;9.22;100.00
56006;BME280;41888;44.696;10.522;2022-11-14T03:41:34;101238.91;;;9.19;100.00
56006;BME280;41888;44.696;10.522;2022-11-14T03:44:00;101239.88;;;9.18;100.00
56006;BME280;41888;44.696;10.522;2022-11-14T03:46:26;101243.00;;;9.21;100.00
56006;BME280;41888;44.696;10.522;2022-11-14T03:48:52;101250.97;;;9.21;100.00
56006;BME280;41888;44.696;10.522;2022-11-14T03:51:18;101242.84;;;9.23;100.00
56006;BME280;41888;44.696;10.522;2022-11-14T03:53:44;101246.50;;;9.22;100.00
56006;BME280;41888;44.696;10.522;2022-11-14T03:56:10;101243.22;;;9.20;100.00
56006;BME280;41888;44.696;10.522;2022-11-14T03:58:37;101240.88;;;9.17;100.00
56006;BME280;41888;44.696;10.522;2022-11-14T04:01:03;101249.81;;;9.24;100.00
56006;BME280;41888;44.696;10.522;2022-11-14T04:03:29;101242.25;;;9.13;100.00
56006;BME280;41888;44.696;10.522;2022-11-14T04:05:55;101248.84;;;9.17;100.00
56006;BME280;41888;44.696;10.522;2022-11-14T04:08:21;101248.38;;;9.13;100.00
56006;BME280;41888;44.696;10.522;2022-11-14T04:10:48;101250.91;;;9.07;100.00
56006;BME280;41888;44.696;10.522;2022-11-14T04:13:15;101251.56;;;9.09;100.00
56006;BME280;41888;44.696;10.522;2022-11-14T04:15:41;101264.19;;;9.07;100.00
56006;BME280;41888;44.696;10.522;2022-11-14T04:18:07;101257.88;;;9.08;100.00
56006;BME280;41888;44.696;10.522;2022-11-14T04:20:33;101261.00;;;9.11;100.00
56006;BME280;41888;44.696;10.522;2022-11-14T04:22:59;101261.81;;;9.12;100.00
56006;BME280;41888;44.696;10.522;2022-11-14T04:25:25;101255.16;;;9.16;100.00
56006;BME280;41888;44.696;10.522;2022-11-14T04:27:52;101257.28;;;9.20;100.00
56006;BME280;41888;44.696;10.522;2022-11-14T04:30:18;101252.81;;;9.21;100.00
56006;BME280;41888;44.696;10.522;2022-11-14T04:32:45;101245.88;;;9.20;100.00
56006;BME280;41888;44.696;10.522;2022-11-14T04:35:13;101242.19;;;9.21;100.00
56006;BME280;41888;44.696;10.522;2022-11-14T04:37:39;101239.34;;;9.22;100.00
56006;BME280;41888;44.696;10.522;2022-11-14T04:40:06;101235.53;;;9.25;100.00
56006;BME280;41888;44.696;10.522;2022-11-14T04:42:32;101230.09;;;9.18;100.00
56006;BME280;41888;44.696;10.522;2022-11-14T04:44:58;101228.81;;;9.14;100.00
56006;BME280;41888;44.696;10.522;2022-11-14T04:47:25;101228.59;;;9.16;100.00
56006;BME280;41888;44.696;10.522;2022-11-14T04:49:51;101235.56;;;9.17;100.00
56006;BME280;41888;44.696;10.522;2022-11-14T04:52:17;101231.25;;;9.16;100.00
56006;BME280;41888;44.696;10.522;2022-11-14T04:54:43;101231.25;;;9.16;100.00
56006;BME280;41888;44.696;10.522;2022-11-14T04:57:09;101234.56;;;9.18;100.00
56006;BME280;41888;44.696;10.522;2022-11-14T04:59:35;101241.56;;;9.19;100.00
56006;BME280;41888;44.696;10.522;2022-11-14T05:02:01;101237.25;;;9.18;100.00
56006;BME280;41888;44.696;10.522;2022-11-14T05:04:28;101239.19;;;9.24;100.00
56006;BME280;41888;44.696;10.522;2022-11-14T05:06:54;101237.91;;;9.20;100.00
56006;BME280;41888;44.696;10.522;2022-11-14T05:09:20;101239.53;;;9.21;100.00
56006;BME280;41888;44.696;10.522;2022-11-14T05:11:46;101245.34;;;9.24;100.00
56006;BME280;41888;44.696;10.522;2022-11-14T05:14:12;101241.66;;;9.25;100.00
56006;BME280;41888;44.696;10.522;2022-11-14T05:16:38;101239.19;;;9.24;100.00
56006;BME280;41888;44.696;10.522;2022-11-14T05:19:04;101242.38;;;9.19;100.00
56006;BME280;41888;44.696;10.522;2022-11-14T05:21:31;101239.53;;;9.21;100.00
56006;BME280;41888;44.696;10.522;2022-11-14T05:23:57;101238.69;;;9.20;100.00
56006;BME280;41888;44.696;10.522;2022-11-14T05:26:23;101242.84;;;9.23;100.00
56006;BME280;41888;44.696;10.522;2022-11-14T05:28:49;101240.19;;;9.23;100.00
56006;BME280;41888;44.696;10.522;2022-11-14T05:31:16;101242.19;;;9.21;100.00
56006;BME280;41888;44.696;10.522;2022-11-14T05:33:44;101242.84;;;9.23;100.00
56006;BME280;41888;44.696;10.522;2022-11-14T05:36:12;101242.69;;;9.24;100.00
56006;BME280;41888;44.696;10.522;2022-11-14T05:38:38;101235.41;;;9.18;100.00
56006;BME280;41888;44.696;10.522;2022-11-14T05:41:10;101244.72;;;9.14;100.00
56006;BME280;41888;44.696;10.522;2022-11-14T05:43:36;101242.25;;;9.13;100.00
56006;BME280;41888;44.696;10.522;2022-11-14T05:46:04;101247.19;;;9.16;100.00
56006;BME280;41888;44.696;10.522;2022-11-14T05:48:31;101245.19;;;9.18;100.00
56006;BME280;41888;44.696;10.522;2022-11-14T05:51:00;101247.84;;;9.18;100.00
56006;BME280;41888;44.696;10.522;2022-11-14T05:53:27;101245.03;;;9.19;100.00
56006;BME280;41888;44.696;10.522;2022-11-14T05:55:54;101242.84;;;9.23;100.00
56006;BME280;41888;44.696;10.522;2022-11-14T05:58:21;101245.19;;;9.18;100.00
56006;BME280;41888;44.696;10.522;2022-11-14T06:00:47;101240.88;;;9.17;100.00
56006;BME280;41888;44.696;10.522;2022-11-14T06:03:13;101246.66;;;9.20;100.00
56006;BME280;41888;44.696;10.522;2022-11-14T06:05:41;101244.84;;;9.21;100.00
56006;BME280;41888;44.696;10.522;2022-11-14T06:08:07;101245.88;;;9.20;100.00
56006;BME280;41888;44.696;10.522;2022-11-14T06:10:35;101241.78;;;9.09;100.00
56006;BME280;41888;44.696;10.522;2022-11-14T06:13:01;101252.88;;;9.13;100.00
56006;BME280;41888;44.696;10.522;2022-11-14T06:15:27;101247.09;;;9.09;100.00
56006;BME280;41888;44.696;10.522;2022-11-14T06:17:54;101257.34;;;9.12;100.00
56006;BME280;41888;44.696;10.522;2022-11-14T06:20:20;101254.31;;;9.15;100.00
56006;BME280;41888;44.696;10.522;2022-11-14T06:22:46;101260.31;;;9.17;100.00
56006;BME280;41888;44.696;10.522;2022-11-14T06:25:13;101266.06;;;9.21;100.00
56006;BME280;41888;44.696;10.522;2022-11-14T06:27:39;101267.22;;;9.26;100.00
56006;BME280;41888;44.696;10.522;2022-11-14T06:30:05;101263.91;;;9.24;100.00
56006;BME280;41888;44.696;10.522;2022-11-14T06:32:31;101254.94;;;9.25;100.00
56006;BME280;41888;44.696;10.522;2022-11-14T06:34:58;101265.22;;;9.28;100.00
56006;BME280;41888;44.696;10.522;2022-11-14T06:37:24;101271.00;;;9.32;100.00
56006;BME280;41888;44.696;10.522;2022-11-14T06:39:50;101262.19;;;9.31;100.00
56006;BME280;41888;44.696;10.522;2022-11-14T06:42:16;101266.69;;;9.31;100.00
56006;BME280;41888;44.696;10.522;2022-11-14T06:44:42;101264.38;;;9.28;100.00
56006;BME280;41888;44.696;10.522;2022-11-14T06:47:08;101262.72;;;9.27;100.00
56006;BME280;41888;44.696;10.522;2022-11-14T06:49:34;101277.78;;;9.35;100.00
56006;BME280;41888;44.696;10.522;2022-11-14T06:52:01;101277.97;;;9.33;100.00
56006;BME280;41888;44.696;10.522;2022-11-14T06:54:27;101273.47;;;9.33;100.00
56006;BME280;41888;44.696;10.522;2022-11-14T06:56:53;101278.25;;;9.38;100.00
56006;BME280;41888;44.696;10.522;2022-11-14T06:59:19;101277.25;;;9.39;100.00
56006;BME280;41888;44.696;10.522;2022-11-14T07:01:45;101279.84;;;9.47;100.00
56006;BME280;41888;44.696;10.522;2022-11-14T07:04:11;101284.00;;;9.50;100.00
56006;BME280;41888;44.696;10.522;2022-11-14T07:06:37;101284.28;;;9.55;100.00
56006;BME280;41888;44.696;10.522;2022-11-14T07:09:03;101281.47;;;9.56;100.00
56006;BME280;41888;44.696;10.522;2022-11-14T07:11:30;101285.69;;;9.65;100.00
56006;BME280;41888;44.696;10.522;2022-11-14T07:13:58;101292.56;;;9.83;100.00
56006;BME280;41888;44.696;10.522;2022-11-14T07:16:30;101293.69;;;10.03;100.00
56006;BME280;41888;44.696;10.522;2022-11-14T07:18:57;101293.81;;;10.09;100.00
56006;BME280;41888;44.696;10.522;2022-11-14T07:21:25;101296.09;;;10.12;100.00
56006;BME280;41888;44.696;10.522;2022-11-14T07:23:51;101296.53;;;10.39;100.00
56006;BME280;41888;44.696;10.522;2022-11-14T07:26:18;101301.50;;;10.56;100.00
56006;BME280;41888;44.696;10.522;2022-11-14T07:28:44;101296.09;;;10.65;100.00
56006;BME280;41888;44.696;10.522;2022-11-14T07:31:13;101294.97;;;10.74;100.00
56006;BME280;41888;44.696;10.522;2022-11-14T07:33:41;101297.38;;;10.83;100.00
56006;BME280;41888;44.696;10.522;2022-11-14T07:36:09;101302.03;;;10.96;100.00
56006;BME280;41888;44.696;10.522;2022-11-14T07:38:36;101300.91;;;11.05;100.00
56006;BME280;41888;44.696;10.522;2022-11-14T07:41:05;101294.72;;;11.19;100.00
56006;BME280;41888;44.696;10.522;2022-11-14T07:43:31;101299.66;;;11.22;100.00
56006;BME280;41888;44.696;10.522;2022-11-14T07:46:03;101303.66;;;11.12;100.00
56006;BME280;41888;44.696;10.522;2022-11-14T07:48:30;101300.69;;;11.21;100.00
56006;BME280;41888;44.696;10.522;2022-11-14T07:51:05;101305.72;;;11.31;100.00
56006;BME280;41888;44.696;10.522;2022-11-14T07:53:32;101301.44;;;11.51;100.00
56006;BME280;41888;44.696;10.522;2022-11-14T07:56:04;101305.50;;;11.47;100.00
56006;BME280;41888;44.696;10.522;2022-11-14T07:58:30;101310.00;;;11.47;100.00
56006;BME280;41888;44.696;10.522;2022-11-14T08:01:00;101306.09;;;11.28;100.00
56006;BME280;41888;44.696;10.522;2022-11-14T08:03:27;101306.84;;;11.58;100.00
56006;BME280;41888;44.696;10.522;2022-11-14T08:06:00;101300.75;;;11.85;100.00
56006;BME280;41888;44.696;10.522;2022-11-14T08:08:27;101295.94;;;11.74;100.00
56006;BME280;41888;44.696;10.522;2022-11-14T08:10:56;101302.81;;;11.83;100.00
56006;BME280;41888;44.696;10.522;2022-11-14T08:13:23;101299.47;;;12.02;100.00
56006;BME280;41888;44.696;10.522;2022-11-14T08:15:49;101296.41;;;13.08;100.00
56006;BME280;41888;44.696;10.522;2022-11-14T08:18:15;101300.50;;;14.18;100.00
56006;BME280;41888;44.696;10.522;2022-11-14T08:20:42;101283.09;;;15.31;100.00
56006;BME280;41888;44.696;10.522;2022-11-14T08:23:09;101296.81;;;14.25;100.00
56006;BME280;41888;44.696;10.522;2022-11-14T08:25:36;101291.81;;;13.50;100.00
56006;BME280;41888;44.696;10.522;2022-11-14T08:28:02;101284.19;;;13.40;100.00
56006;BME280;41888;44.696;10.522;2022-11-14T08:30:28;101286.94;;;13.73;100.00
56006;BME280;41888;44.696;10.522;2022-11-14T08:32:55;101290.88;;;13.90;100.00
56006;BME280;41888;44.696;10.522;2022-11-14T08:35:21;101292.47;;;13.52;100.00
56006;BME280;41888;44.696;10.522;2022-11-14T08:37:48;101289.31;;;13.29;100.00
56006;BME280;41888;44.696;10.522;2022-11-14T08:40:14;101287.53;;;13.62;100.00
56006;BME280;41888;44.696;10.522;2022-11-14T08:42:40;101296.63;;;14.01;100.00
56006;BME280;41888;44.696;10.522;2022-11-14T08:45:06;101294.19;;;14.96;100.00
56006;BME280;41888;44.696;10.522;2022-11-14T08:47:33;101295.19;;;16.88;100.00
56006;BME280;41888;44.696;10.522;2022-11-14T08:49:59;101285.06;;;18.73;100.00
56006;BME280;41888;44.696;10.522;2022-11-14T08:52:26;101293.47;;;19.28;92.56
56006;BME280;41888;44.696;10.522;2022-11-14T08:54:52;101289.84;;;17.78;97.80
56006;BME280;41888;44.696;10.522;2022-11-14T08:57:18;101300.44;;;16.40;100.00
56006;BME280;41888;44.696;10.522;2022-11-14T08:59:44;101298.75;;;15.72;100.00
56006;BME280;41888;44.696;10.522;2022-11-14T09:02:11;101306.28;;;14.48;100.00
56006;BME280;41888;44.696;10.522;2022-11-14T09:04:38;101309.94;;;13.61;100.00
56006;BME280;41888;44.696;10.522;2022-11-14T09:07:05;101312.81;;;13.46;100.00
56006;BME280;41888;44.696;10.522;2022-11-14T09:09:31;101304.03;;;13.79;100.00
56006;BME280;41888;44.696;10.522;2022-11-14T09:11:57;101302.75;;;13.01;100.00
56006;BME280;41888;44.696;10.522;2022-11-14T09:14:24;101310.25;;;12.78;100.00
56006;BME280;41888;44.696;10.522;2022-11-14T09:16:50;101321.53;;;12.45;100.00
56006;BME280;41888;44.696;10.522;2022-11-14T09:19:16;101328.47;;;12.40;100.00
56006;BME280;41888;44.696;10.522;2022-11-14T09:21:42;101323.56;;;12.37;100.00
56006;BME280;41888;44.696;10.522;2022-11-14T09:24:09;101329.13;;;12.76;100.00
56006;BME280;41888;44.696;10.522;2022-11-14T09:26:35;101328.16;;;12.90;100.00
56006;BME280;41888;44.696;10.522;2022-11-14T09:29:01;101328.19;;;12.56;100.00
56006;BME280;41888;44.696;10.522;2022-11-14T09:31:28;101324.66;;;12.21;100.00
56006;BME280;41888;44.696;10.522;2022-11-14T09:33:54;101326.34;;;11.79;100.00
56006;BME280;41888;44.696;10.522;2022-11-14T09:36:20;101328.97;;;11.58;100.00
56006;BME280;41888;44.696;10.522;2022-11-14T09:38:49;101332.88;;;11.77;100.00
56006;BME280;41888;44.696;10.522;2022-11-14T09:44:12;101329.84;;;11.65;100.00
56006;BME280;41888;44.696;10.522;2022-11-14T09:46:47;101329.75;;;11.52;100.00
56006;BME280;41888;44.696;10.522;2022-11-14T09:49:58;101326.50;;;11.57;100.00
56006;BME280;41888;44.696;10.522;2022-11-14T09:52:29;101321.53;;;11.54;100.00
56006;BME280;41888;44.696;10.522;2022-11-14T09:54:58;101319.63;;;11.69;100.00
56006;BME280;41888;44.696;10.522;2022-11-14T09:57:26;101323.69;;;11.43;100.00
56006;BME280;41888;44.696;10.522;2022-11-14T09:59:54;101321.72;;;11.31;100.00
56006;BME280;41888;44.696;10.522;2022-11-14T10:05:21;101323.94;;;11.49;100.00
56006;BME280;41888;44.696;10.522;2022-11-14T10:11:08;101307.63;;;11.73;100.00
56006;BME280;41888;44.696;10.522;2022-11-14T10:14:03;101308.75;;;11.85;100.00
56006;BME280;41888;44.696;10.522;2022-11-14T10:31:50;101292.53;;;12.36;100.00
56006;BME280;41888;44.696;10.522;2022-11-14T10:34:35;101292.00;;;12.47;100.00
56006;BME280;41888;44.696;10.522;2022-11-14T10:43:22;101288.69;;;12.45;100.00
56006;BME280;41888;44.696;10.522;2022-11-14T10:46:02;101287.91;;;12.51;100.00
56006;BME280;41888;44.696;10.522;2022-11-14T10:48:32;101281.75;;;12.50;100.00
56006;BME280;41888;44.696;10.522;2022-11-14T10:51:17;101277.06;;;12.59;100.00
56006;BME280;41888;44.696;10.522;2022-11-14T10:54:02;101274.47;;;12.72;100.00
56006;BME280;41888;44.696;10.522;2022-11-14T10:56:30;101270.38;;;12.76;100.00
56006;BME280;41888;44.696;10.522;2022-11-14T10:58:57;101268.38;;;12.85;100.00
56006;BME280;41888;44.696;10.522;2022-11-14T11:01:42;101259.38;;;12.99;100.00
56006;BME280;41888;44.696;10.522;2022-11-14T11:04:13;101263.72;;;13.06;100.00
56006;BME280;41888;44.696;10.522;2022-11-14T11:06:43;101261.31;;;13.18;100.00
56006;BME280;41888;44.696;10.522;2022-11-14T11:09:20;101259.09;;;13.22;100.00
56006;BME280;41888;44.696;10.522;2022-11-14T11:12:07;101261.94;;;13.14;100.00
56006;BME280;41888;44.696;10.522;2022-11-14T11:14:33;101254.16;;;13.25;100.00
56006;BME280;41888;44.696;10.522;2022-11-14T11:19:40;101245.38;;;13.71;100.00
56006;BME280;41888;44.696;10.522;2022-11-14T11:22:29;101249.19;;;14.60;100.00
56006;BME280;41888;44.696;10.522;2022-11-14T11:25:00;101242.66;;;17.04;100.00
56006;BME280;41888;44.696;10.522;2022-11-14T11:27:28;101248.44;;;18.61;100.00
56006;BME280;41888;44.696;10.522;2022-11-14T11:32:33;101259.94;;;19.41;91.54
56006;BME280;41888;44.696;10.522;2022-11-14T11:35:01;101251.13;;;17.91;97.95
56006;BME280;41888;44.696;10.522;2022-11-14T11:37:43;101254.03;;;16.33;100.00
56006;BME280;41888;44.696;10.522;2022-11-14T11:40:26;101246.28;;;15.44;100.00
56006;BME280;41888;44.696;10.522;2022-11-14T11:43:03;101236.88;;;15.35;100.00
56006;BME280;41888;44.696;10.522;2022-11-14T11:45:34;101245.84;;;15.16;100.00
56006;BME280;41888;44.696;10.522;2022-11-14T11:48:12;101248.78;;;14.57;100.00
56006;BME280;41888;44.696;10.522;2022-11-14T11:50:39;101252.69;;;14.54;100.00
56006;BME280;41888;44.696;10.522;2022-11-14T11:53:22;101245.06;;;14.64;100.00
56006;BME280;41888;44.696;10.522;2022-11-14T11:55:57;101246.47;;;14.73;100.00
56006;BME280;41888;44.696;10.522;2022-11-14T11:58:49;101252.41;;;14.75;100.00
56006;BME280;41888;44.696;10.522;2022-11-14T12:01:16;101248.13;;;14.68;100.00
56006;BME280;41888;44.696;10.522;2022-11-14T12:03:52;101247.56;;;14.53;100.00
56006;BME280;41888;44.696;10.522;2022-11-14T12:06:21;101243.91;;;14.27;100.00
56006;BME280;41888;44.696;10.522;2022-11-14T12:11:38;101235.47;;;14.11;100.00
56006;BME280;41888;44.696;10.522;2022-11-14T12:24:56;101227.59;;;14.29;100.00
56006;BME280;41888;44.696;10.522;2022-11-14T12:32:45;101223.91;;;14.43;100.00
56006;BME280;41888;44.696;10.522;2022-11-14T12:35:33;101220.72;;;14.72;100.00
56006;BME280;41888;44.696;10.522;2022-11-14T12:38:03;101209.16;;;14.78;100.00
56006;BME280;41888;44.696;10.522;2022-11-14T12:40:31;101215.16;;;14.74;100.00
56006;BME280;41888;44.696;10.522;2022-11-14T12:42:59;101213.59;;;14.53;100.00
56006;BME280;41888;44.696;10.522;2022-11-14T12:50:51;101196.81;;;14.71;100.00
56006;BME280;41888;44.696;10.522;2022-11-14T12:53:44;101202.22;;;14.64;100.00
56006;BME280;41888;44.696;10.522;2022-11-14T13:13:12;101196.09;;;14.44;100.00
56006;BME280;41888;44.696;10.522;2022-11-14T13:15:58;101196.31;;;14.36;100.00
56006;BME280;41888;44.696;10.522;2022-11-14T13:29:55;101196.81;;;13.67;100.00
56006;BME280;41888;44.696;10.522;2022-11-14T13:35:39;101185.09;;;13.68;100.00
56006;BME280;41888;44.696;10.522;2022-11-14T13:46:36;101180.78;;;13.54;100.00
56006;BME280;41888;44.696;10.522;2022-11-14T13:49:16;101180.56;;;13.56;100.00
56006;BME280;41888;44.696;10.522;2022-11-14T13:51:47;101183.06;;;13.64;100.00
56006;BME280;41888;44.696;10.522;2022-11-14T13:54:16;101176.44;;;13.60;100.00
56006;BME280;41888;44.696;10.522;2022-11-14T14:05:26;101162.69;;;13.43;100.00
56006;BME280;41888;44.696;10.522;2022-11-14T14:08:27;101161.66;;;13.44;100.00
56006;BME280;41888;44.696;10.522;2022-11-14T14:20:33;101148.25;;;13.83;100.00
56006;BME280;41888;44.696;10.522;2022-11-14T14:22:39;101153.63;;;13.83;100.00
56006;BME280;41888;44.696;10.522;2022-11-14T14:25:45;101144.38;;;13.79;100.00
56006;BME280;41888;44.696;10.522;2022-11-14T14:28:53;101141.28;;;13.69;100.00
56006;BME280;41888;44.696;10.522;2022-11-14T14:31:25;101138.63;;;13.49;100.00
56006;BME280;41888;44.696;10.522;2022-11-14T14:33:58;101140.28;;;13.37;100.00
56006;BME280;41888;44.696;10.522;2022-11-14T14:36:26;101144.41;;;13.27;100.00
56006;BME280;41888;44.696;10.522;2022-11-14T14:41:37;101138.78;;;13.08;100.00
56006;BME280;41888;44.696;10.522;2022-11-14T14:44:04;101139.19;;;13.05;100.00
56006;BME280;41888;44.696;10.522;2022-11-14T14:46:32;101133.63;;;12.94;100.00